sensor_id;sensor_type;location;lat;lon;timestamp;temperature;humidity
25346;DHT22;13300;51.032;3.710;2023-03-01T00:01:14;3.60;99.90
25346;DHT22;13300;51.032;3.710;2023-03-01T00:04:08;3.60;99.90
25346;DHT22;13300;51.032;3.710;2023-03-01T00:06:40;3.60;99.90
25346;DHT22;13300;51.032;3.710;2023-03-01T00:09:23;3.60;99.90
25346;DHT22;13300;51.032;3.710;2023-03-01T00:11:52;3.70;99.90
25346;DHT22;13300;51.032;3.710;2023-03-01T00:14:20;3.60;99.90
25346;DHT22;13300;51.032;3.710;2023-03-01T00:16:47;3.70;99.90
25346;DHT22;13300;51.032;3.710;2023-03-01T00:19:18;3.60;99.90
25346;DHT22;13300;51.032;3.710;2023-03-01T00:21:55;3.50;99.90
25346;DHT22;13300;51.032;3.710;2023-03-01T00:24:25;3.70;99.90
25346;DHT22;13300;51.032;3.710;2023-03-01T00:26:57;3.70;99.90
25346;DHT22;13300;51.032;3.710;2023-03-01T00:29:26;3.60;99.90
25346;DHT22;13300;51.032;3.710;2023-03-01T00:32:04;3.60;99.90
25346;DHT22;13300;51.032;3.710;2023-03-01T00:34:35;3.50;99.90
25346;DHT22;13300;51.032;3.710;2023-03-01T00:37:01;3.50;99.90
25346;DHT22;13300;51.032;3.710;2023-03-01T00:39:31;3.60;99.90
25346;DHT22;13300;51.032;3.710;2023-03-01T00:41:59;3.50;99.90
25346;DHT22;13300;51.032;3.710;2023-03-01T00:44:31;3.60;99.90
25346;DHT22;13300;51.032;3.710;2023-03-01T00:47:00;3.40;99.90
25346;DHT22;13300;51.032;3.710;2023-03-01T00:49:26;3.50;99.90
25346;DHT22;13300;51.032;3.710;2023-03-01T00:51:53;3.50;99.90
25346;DHT22;13300;51.032;3.710;2023-03-01T00:54:22;3.50;99.90
25346;DHT22;13300;51.032;3.710;2023-03-01T00:56:55;3.50;99.90
25346;DHT22;13300;51.032;3.710;2023-03-01T00:59:27;3.50;99.90
25346;DHT22;13300;51.032;3.710;2023-03-01T01:01:56;3.50;99.90
25346;DHT22;13300;51.032;3.710;2023-03-01T01:04:34;3.40;99.90
25346;DHT22;13300;51.032;3.710;2023-03-01T01:07:05;3.40;99.90
25346;DHT22;13300;51.032;3.710;2023-03-01T01:09:31;3.30;99.90
25346;DHT22;13300;51.032;3.710;2023-03-01T01:12:09;3.40;99.90
25346;DHT22;13300;51.032;3.710;2023-03-01T01:14:37;3.40;99.90
25346;DHT22;13300;51.032;3.710;2023-03-01T01:17:06;3.40;99.90
25346;DHT22;13300;51.032;3.710;2023-03-01T01:19:40;3.40;99.90
25346;DHT22;13300;51.032;3.710;2023-03-01T01:22:09;3.40;99.90
25346;DHT22;13300;51.032;3.710;2023-03-01T01:24:42;3.40;99.90
25346;DHT22;13300;51.032;3.710;2023-03-01T01:27:09;3.40;99.90
25346;DHT22;13300;51.032;3.710;2023-03-01T01:29:39;3.40;99.90
25346;DHT22;13300;51.032;3.710;2023-03-01T01:32:07;3.40;99.90
25346;DHT22;13300;51.032;3.710;2023-03-01T01:34:36;3.30;99.90
25346;DHT22;13300;51.032;3.710;2023-03-01T01:37:07;3.30;99.90
25346;DHT22;13300;51.032;3.710;2023-03-01T01:39:35;3.30;99.90
25346;DHT22;13300;51.032;3.710;2023-03-01T01:42:01;3.30;99.90
25346;DHT22;13300;51.032;3.710;2023-03-01T01:44:33;3.20;99.90
25346;DHT22;13300;51.032;3.710;2023-03-01T01:47:05;3.10;99.90
25346;DHT22;13300;51.032;3.710;2023-03-01T01:49:44;3.20;99.90
25346;DHT22;13300;51.032;3.710;2023-03-01T01:52:20;3.10;99.90
25346;DHT22;13300;51.032;3.710;2023-03-01T01:55:03;3.10;99.90
25346;DHT22;13300;51.032;3.710;2023-03-01T01:57:49;3.10;99.90
25346;DHT22;13300;51.032;3.710;2023-03-01T02:00:21;3.10;99.90
25346;DHT22;13300;51.032;3.710;2023-03-01T02:02:59;3.00;99.90
25346;DHT22;13300;51.032;3.710;2023-03-01T02:05:52;2.90;99.90
25346;DHT22;13300;51.032;3.710;2023-03-01T02:08:22;3.00;99.90
25346;DHT22;13300;51.032;3.710;2023-03-01T02:10:57;3.20;99.90
25346;DHT22;13300;51.032;3.710;2023-03-01T02:13:33;3.00;99.90
25346;DHT22;13300;51.032;3.710;2023-03-01T02:16:02;3.10;99.90
25346;DHT22;13300;51.032;3.710;2023-03-01T02:18:28;3.00;99.90
25346;DHT22;13300;51.032;3.710;2023-03-01T02:21:03;3.00;99.90
25346;DHT22;13300;51.032;3.710;2023-03-01T02:23:31;2.80;99.90
25346;DHT22;13300;51.032;3.710;2023-03-01T02:28:42;2.80;99.90
25346;DHT22;13300;51.032;3.710;2023-03-01T02:31:20;2.90;99.90
25346;DHT22;13300;51.032;3.710;2023-03-01T02:34:07;2.80;99.90
25346;DHT22;13300;51.032;3.710;2023-03-01T02:36:39;2.90;99.90
25346;DHT22;13300;51.032;3.710;2023-03-01T02:39:23;2.80;99.90
25346;DHT22;13300;51.032;3.710;2023-03-01T02:41:56;2.80;99.90
25346;DHT22;13300;51.032;3.710;2023-03-01T02:44:25;2.80;99.90
25346;DHT22;13300;51.032;3.710;2023-03-01T02:46:56;2.80;99.90
25346;DHT22;13300;51.032;3.710;2023-03-01T02:49:49;2.80;99.90
25346;DHT22;13300;51.032;3.710;2023-03-01T02:55:11;2.70;99.90
25346;DHT22;13300;51.032;3.710;2023-03-01T02:57:44;2.60;99.90
25346;DHT22;13300;51.032;3.710;2023-03-01T03:00:17;2.60;99.90
25346;DHT22;13300;51.032;3.710;2023-03-01T03:02:51;2.60;99.90
25346;DHT22;13300;51.032;3.710;2023-03-01T03:05:31;2.70;99.90
25346;DHT22;13300;51.032;3.710;2023-03-01T03:08:00;2.80;99.90
25346;DHT22;13300;51.032;3.710;2023-03-01T03:10:42;2.70;99.90
25346;DHT22;13300;51.032;3.710;2023-03-01T03:13:15;2.70;99.90
25346;DHT22;13300;51.032;3.710;2023-03-01T03:15:56;2.70;99.90
25346;DHT22;13300;51.032;3.710;2023-03-01T03:18:24;2.70;99.90
25346;DHT22;13300;51.032;3.710;2023-03-01T03:21:02;2.70;99.90
25346;DHT22;13300;51.032;3.710;2023-03-01T03:23:46;2.70;99.90
25346;DHT22;13300;51.032;3.710;2023-03-01T03:26:15;2.60;99.90
25346;DHT22;13300;51.032;3.710;2023-03-01T03:28:45;2.70;99.90
25346;DHT22;13300;51.032;3.710;2023-03-01T03:31:14;2.60;99.90
25346;DHT22;13300;51.032;3.710;2023-03-01T03:33:42;2.60;99.90
25346;DHT22;13300;51.032;3.710;2023-03-01T03:36:16;2.70;99.90
25346;DHT22;13300;51.032;3.710;2023-03-01T03:38:48;2.80;99.90
25346;DHT22;13300;51.032;3.710;2023-03-01T03:41:19;2.70;99.90
25346;DHT22;13300;51.032;3.710;2023-03-01T03:43:49;2.80;99.90
25346;DHT22;13300;51.032;3.710;2023-03-01T03:46:18;2.70;99.90
25346;DHT22;13300;51.032;3.710;2023-03-01T03:48:54;2.70;99.90
25346;DHT22;13300;51.032;3.710;2023-03-01T03:51:27;2.70;99.90
25346;DHT22;13300;51.032;3.710;2023-03-01T03:53:58;2.60;99.90
25346;DHT22;13300;51.032;3.710;2023-03-01T03:56:24;2.60;99.90
25346;DHT22;13300;51.032;3.710;2023-03-01T03:58:54;2.60;99.90
25346;DHT22;13300;51.032;3.710;2023-03-01T04:01:34;2.60;99.90
25346;DHT22;13300;51.032;3.710;2023-03-01T04:04:20;2.60;99.90
25346;DHT22;13300;51.032;3.710;2023-03-01T04:06:51;2.60;99.90
25346;DHT22;13300;51.032;3.710;2023-03-01T04:09:45;2.60;99.90
25346;DHT22;13300;51.032;3.710;2023-03-01T04:12:18;2.40;99.90
25346;DHT22;13300;51.032;3.710;2023-03-01T04:14:48;2.50;99.90
25346;DHT22;13300;51.032;3.710;2023-03-01T04:17:17;2.50;99.90
25346;DHT22;13300;51.032;3.710;2023-03-01T04:19:49;2.50;99.90
25346;DHT22;13300;51.032;3.710;2023-03-01T04:22:33;2.50;99.90
25346;DHT22;13300;51.032;3.710;2023-03-01T04:25:01;2.30;99.90
25346;DHT22;13300;51.032;3.710;2023-03-01T04:27:56;2.40;99.90
25346;DHT22;13300;51.032;3.710;2023-03-01T04:30:37;2.40;99.90
25346;DHT22;13300;51.032;3.710;2023-03-01T04:33:11;2.30;99.90
25346;DHT22;13300;51.032;3.710;2023-03-01T04:35:51;2.30;99.90
25346;DHT22;13300;51.032;3.710;2023-03-01T04:38:24;2.30;99.90
25346;DHT22;13300;51.032;3.710;2023-03-01T04:41:01;2.30;99.90
25346;DHT22;13300;51.032;3.710;2023-03-01T04:43:35;2.30;99.90
25346;DHT22;13300;51.032;3.710;2023-03-01T04:46:06;2.20;99.90
25346;DHT22;13300;51.032;3.710;2023-03-01T04:48:40;2.20;99.90
25346;DHT22;13300;51.032;3.710;2023-03-01T04:51:14;2.10;99.90
25346;DHT22;13300;51.032;3.710;2023-03-01T04:53:44;2.20;99.90
25346;DHT22;13300;51.032;3.710;2023-03-01T04:56:14;2.20;99.90
25346;DHT22;13300;51.032;3.710;2023-03-01T04:58:48;2.10;99.90
25346;DHT22;13300;51.032;3.710;2023-03-01T05:01:19;2.20;99.90
25346;DHT22;13300;51.032;3.710;2023-03-01T05:03:48;2.10;99.90
25346;DHT22;13300;51.032;3.710;2023-03-01T05:06:15;2.10;99.90
25346;DHT22;13300;51.032;3.710;2023-03-01T05:08:55;2.10;99.90
25346;DHT22;13300;51.032;3.710;2023-03-01T05:11:26;2.20;99.90
25346;DHT22;13300;51.032;3.710;2023-03-01T05:13:56;2.10;99.90
25346;DHT22;13300;51.032;3.710;2023-03-01T05:16:28;2.10;99.90
25346;DHT22;13300;51.032;3.710;2023-03-01T05:18:57;2.10;99.90
25346;DHT22;13300;51.032;3.710;2023-03-01T05:21:23;2.00;99.90
25346;DHT22;13300;51.032;3.710;2023-03-01T05:23:51;2.10;99.90
25346;DHT22;13300;51.032;3.710;2023-03-01T05:26:32;2.00;99.90
25346;DHT22;13300;51.032;3.710;2023-03-01T05:29:05;2.10;99.90
25346;DHT22;13300;51.032;3.710;2023-03-01T05:31:43;2.00;99.90
25346;DHT22;13300;51.032;3.710;2023-03-01T05:34:11;2.00;99.90
25346;DHT22;13300;51.032;3.710;2023-03-01T05:36:53;2.00;99.90
25346;DHT22;13300;51.032;3.710;2023-03-01T05:39:37;1.90;99.90
25346;DHT22;13300;51.032;3.710;2023-03-01T05:42:06;2.00;99.90
25346;DHT22;13300;51.032;3.710;2023-03-01T05:44:33;1.90;99.90
25346;DHT22;13300;51.032;3.710;2023-03-01T05:47:00;1.90;99.90
25346;DHT22;13300;51.032;3.710;2023-03-01T05:49:28;1.90;99.90
25346;DHT22;13300;51.032;3.710;2023-03-01T05:51:59;2.00;99.90
25346;DHT22;13300;51.032;3.710;2023-03-01T05:54:28;1.90;99.90
25346;DHT22;13300;51.032;3.710;2023-03-01T05:56:56;1.90;99.90
25346;DHT22;13300;51.032;3.710;2023-03-01T05:59:23;1.90;99.90
25346;DHT22;13300;51.032;3.710;2023-03-01T06:01:52;1.90;99.90
25346;DHT22;13300;51.032;3.710;2023-03-01T06:04:22;2.00;99.90
25346;DHT22;13300;51.032;3.710;2023-03-01T06:06:48;1.90;99.90
25346;DHT22;13300;51.032;3.710;2023-03-01T06:09:21;1.90;99.90
25346;DHT22;13300;51.032;3.710;2023-03-01T06:11:49;1.90;99.90
25346;DHT22;13300;51.032;3.710;2023-03-01T06:14:18;1.90;99.90
25346;DHT22;13300;51.032;3.710;2023-03-01T06:16:54;1.80;99.90
25346;DHT22;13300;51.032;3.710;2023-03-01T06:19:22;1.90;99.90
25346;DHT22;13300;51.032;3.710;2023-03-01T06:21:48;1.90;99.90
25346;DHT22;13300;51.032;3.710;2023-03-01T06:24:14;1.90;99.90
25346;DHT22;13300;51.032;3.710;2023-03-01T06:26:40;1.80;99.90
25346;DHT22;13300;51.032;3.710;2023-03-01T06:29:06;1.80;99.90
25346;DHT22;13300;51.032;3.710;2023-03-01T06:31:33;1.90;99.90
25346;DHT22;13300;51.032;3.710;2023-03-01T06:34:01;2.10;99.90
25346;DHT22;13300;51.032;3.710;2023-03-01T06:36:27;2.10;99.90
25346;DHT22;13300;51.032;3.710;2023-03-01T06:38:58;2.10;99.90
25346;DHT22;13300;51.032;3.710;2023-03-01T06:41:24;2.10;99.90
25346;DHT22;13300;51.032;3.710;2023-03-01T06:43:50;2.10;99.90
25346;DHT22;13300;51.032;3.710;2023-03-01T06:46:22;2.10;99.90
25346;DHT22;13300;51.032;3.710;2023-03-01T06:48:50;2.10;99.90
25346;DHT22;13300;51.032;3.710;2023-03-01T06:51:16;2.10;99.90
25346;DHT22;13300;51.032;3.710;2023-03-01T06:53:42;2.00;99.90
25346;DHT22;13300;51.032;3.710;2023-03-01T06:56:11;2.20;99.90
25346;DHT22;13300;51.032;3.710;2023-03-01T06:58:46;2.30;99.90
25346;DHT22;13300;51.032;3.710;2023-03-01T07:01:12;2.60;99.90
25346;DHT22;13300;51.032;3.710;2023-03-01T07:03:38;2.90;99.90
25346;DHT22;13300;51.032;3.710;2023-03-01T07:06:04;3.20;99.90
25346;DHT22;13300;51.032;3.710;2023-03-01T07:08:33;3.70;99.90
25346;DHT22;13300;51.032;3.710;2023-03-01T07:10:59;4.40;99.90
25346;DHT22;13300;51.032;3.710;2023-03-01T07:13:29;5.10;99.90
25346;DHT22;13300;51.032;3.710;2023-03-01T07:15:55;5.70;99.90
25346;DHT22;13300;51.032;3.710;2023-03-01T07:18:21;6.30;99.90
25346;DHT22;13300;51.032;3.710;2023-03-01T07:20:49;6.80;99.90
25346;DHT22;13300;51.032;3.710;2023-03-01T07:23:18;7.40;99.90
25346;DHT22;13300;51.032;3.710;2023-03-01T07:26:03;8.00;99.90
25346;DHT22;13300;51.032;3.710;2023-03-01T07:28:34;8.50;99.90
25346;DHT22;13300;51.032;3.710;2023-03-01T07:31:05;8.60;99.90
25346;DHT22;13300;51.032;3.710;2023-03-01T07:33:31;8.70;99.90
25346;DHT22;13300;51.032;3.710;2023-03-01T07:36:04;9.00;99.90
25346;DHT22;13300;51.032;3.710;2023-03-01T07:38:35;9.30;99.90
25346;DHT22;13300;51.032;3.710;2023-03-01T07:41:02;9.50;99.90
25346;DHT22;13300;51.032;3.710;2023-03-01T07:43:32;9.70;99.90
25346;DHT22;13300;51.032;3.710;2023-03-01T07:46:03;9.90;99.90
25346;DHT22;13300;51.032;3.710;2023-03-01T07:48:48;10.00;99.90
25346;DHT22;13300;51.032;3.710;2023-03-01T07:51:19;10.20;99.90
25346;DHT22;13300;51.032;3.710;2023-03-01T07:53:48;10.10;99.90
25346;DHT22;13300;51.032;3.710;2023-03-01T07:59:41;11.00;98.40
25346;DHT22;13300;51.032;3.710;2023-03-01T08:02:09;11.20;97.60
25346;DHT22;13300;51.032;3.710;2023-03-01T08:04:44;11.20;97.30
25346;DHT22;13300;51.032;3.710;2023-03-01T08:07:13;11.40;96.80
25346;DHT22;13300;51.032;3.710;2023-03-01T08:09:45;11.20;96.80
25346;DHT22;13300;51.032;3.710;2023-03-01T08:12:25;10.90;96.90
25346;DHT22;13300;51.032;3.710;2023-03-01T08:14:56;11.20;96.30
25346;DHT22;13300;51.032;3.710;2023-03-01T08:17:48;11.10;95.90
25346;DHT22;13300;51.032;3.710;2023-03-01T08:20:14;11.00;95.80
25346;DHT22;13300;51.032;3.710;2023-03-01T08:22:44;11.00;95.70
25346;DHT22;13300;51.032;3.710;2023-03-01T08:25:10;11.10;95.80
25346;DHT22;13300;51.032;3.710;2023-03-01T08:27:36;11.40;95.50
25346;DHT22;13300;51.032;3.710;2023-03-01T08:30:02;11.70;94.90
25346;DHT22;13300;51.032;3.710;2023-03-01T08:32:28;11.60;94.40
25346;DHT22;13300;51.032;3.710;2023-03-01T08:37:25;11.70;94.20
25346;DHT22;13300;51.032;3.710;2023-03-01T08:39:50;11.80;94.00
25346;DHT22;13300;51.032;3.710;2023-03-01T08:42:16;11.90;93.90
25346;DHT22;13300;51.032;3.710;2023-03-01T08:44:42;12.20;93.60
25346;DHT22;13300;51.032;3.710;2023-03-01T08:47:07;12.50;93.40
25346;DHT22;13300;51.032;3.710;2023-03-01T08:49:33;12.40;92.70
25346;DHT22;13300;51.032;3.710;2023-03-01T08:51:59;12.70;92.50
25346;DHT22;13300;51.032;3.710;2023-03-01T08:54:25;12.50;92.70
25346;DHT22;13300;51.032;3.710;2023-03-01T08:56:51;12.50;92.10
25346;DHT22;13300;51.032;3.710;2023-03-01T08:59:17;12.50;92.70
25346;DHT22;13300;51.032;3.710;2023-03-01T09:01:43;12.70;92.40
25346;DHT22;13300;51.032;3.710;2023-03-01T09:04:09;12.90;91.50
25346;DHT22;13300;51.032;3.710;2023-03-01T09:06:36;13.10;91.30
25346;DHT22;13300;51.032;3.710;2023-03-01T09:09:04;13.10;90.90
25346;DHT22;13300;51.032;3.710;2023-03-01T09:11:30;13.00;90.70
25346;DHT22;13300;51.032;3.710;2023-03-01T09:13:56;13.60;90.60
25346;DHT22;13300;51.032;3.710;2023-03-01T09:16:28;14.20;89.50
25346;DHT22;13300;51.032;3.710;2023-03-01T09:18:57;14.30;87.90
25346;DHT22;13300;51.032;3.710;2023-03-01T09:21:23;13.90;88.60
25346;DHT22;13300;51.032;3.710;2023-03-01T09:23:49;13.70;87.80
25346;DHT22;13300;51.032;3.710;2023-03-01T09:26:19;13.70;89.10
25346;DHT22;13300;51.032;3.710;2023-03-01T09:28:47;13.70;88.90
25346;DHT22;13300;51.032;3.710;2023-03-01T09:31:13;13.70;88.30
25346;DHT22;13300;51.032;3.710;2023-03-01T09:33:41;13.60;89.30
25346;DHT22;13300;51.032;3.710;2023-03-01T09:36:15;13.50;89.10
25346;DHT22;13300;51.032;3.710;2023-03-01T09:38:41;13.70;88.00
25346;DHT22;13300;51.032;3.710;2023-03-01T09:41:36;13.80;88.00
25346;DHT22;13300;51.032;3.710;2023-03-01T09:44:57;14.10;88.10
25346;DHT22;13300;51.032;3.710;2023-03-01T09:46:59;14.60;85.90
25346;DHT22;13300;51.032;3.710;2023-03-01T09:49:28;14.30;83.80
25346;DHT22;13300;51.032;3.710;2023-03-01T09:52:00;14.10;84.60
25346;DHT22;13300;51.032;3.710;2023-03-01T09:54:27;14.20;85.60
25346;DHT22;13300;51.032;3.710;2023-03-01T09:57:30;14.30;85.00
25346;DHT22;13300;51.032;3.710;2023-03-01T10:02:52;14.90;84.00
25346;DHT22;13300;51.032;3.710;2023-03-01T10:08:37;15.40;82.70
25346;DHT22;13300;51.032;3.710;2023-03-01T10:11:20;15.40;81.60
25346;DHT22;13300;51.032;3.710;2023-03-01T10:16:51;15.70;81.20
25346;DHT22;13300;51.032;3.710;2023-03-01T10:19:38;16.10;80.60
25346;DHT22;13300;51.032;3.710;2023-03-01T10:24:40;16.80;76.60
25346;DHT22;13300;51.032;3.710;2023-03-01T10:27:52;16.50;75.80
25346;DHT22;13300;51.032;3.710;2023-03-01T10:32:42;15.50;77.40
25346;DHT22;13300;51.032;3.710;2023-03-01T10:35:34;15.50;77.20
25346;DHT22;13300;51.032;3.710;2023-03-01T10:40:31;15.60;77.40
25346;DHT22;13300;51.032;3.710;2023-03-01T10:42:59;15.90;77.50
25346;DHT22;13300;51.032;3.710;2023-03-01T10:50:34;15.50;76.20
25346;DHT22;13300;51.032;3.710;2023-03-01T10:53:02;15.40;77.50
25346;DHT22;13300;51.032;3.710;2023-03-01T10:55:35;15.70;77.50
25346;DHT22;13300;51.032;3.710;2023-03-01T10:58:21;16.70;75.70
25346;DHT22;13300;51.032;3.710;2023-03-01T11:01:03;17.30;74.10
25346;DHT22;13300;51.032;3.710;2023-03-01T11:06:05;17.30;72.30
25346;DHT22;13300;51.032;3.710;2023-03-01T11:08:34;17.20;72.70
25346;DHT22;13300;51.032;3.710;2023-03-01T11:13:35;17.20;72.20
25346;DHT22;13300;51.032;3.710;2023-03-01T11:16:06;17.30;72.00
25346;DHT22;13300;51.032;3.710;2023-03-01T11:18:33;17.40;71.40
25346;DHT22;13300;51.032;3.710;2023-03-01T11:20:59;17.30;72.90
25346;DHT22;13300;51.032;3.710;2023-03-01T11:23:28;17.70;71.30
25346;DHT22;13300;51.032;3.710;2023-03-01T11:26:07;17.50;69.90
25346;DHT22;13300;51.032;3.710;2023-03-01T11:28:36;17.80;69.80
25346;DHT22;13300;51.032;3.710;2023-03-01T11:31:06;17.60;69.70
25346;DHT22;13300;51.032;3.710;2023-03-01T11:34:00;17.40;69.30
25346;DHT22;13300;51.032;3.710;2023-03-01T11:36:52;17.00;69.40
25346;DHT22;13300;51.032;3.710;2023-03-01T11:45:08;17.40;69.20
25346;DHT22;13300;51.032;3.710;2023-03-01T11:50:30;17.90;68.50
25346;DHT22;13300;51.032;3.710;2023-03-01T11:53:36;18.30;67.20
25346;DHT22;13300;51.032;3.710;2023-03-01T11:56:28;17.70;68.00
25346;DHT22;13300;51.032;3.710;2023-03-01T12:02:12;17.00;68.60
25346;DHT22;13300;51.032;3.710;2023-03-01T12:07:12;17.60;68.60
25346;DHT22;13300;51.032;3.710;2023-03-01T12:21:05;18.60;66.20
25346;DHT22;13300;51.032;3.710;2023-03-01T12:23:50;18.50;66.20
25346;DHT22;13300;51.032;3.710;2023-03-01T12:37:29;18.60;66.70
25346;DHT22;13300;51.032;3.710;2023-03-01T12:45:51;17.90;65.80
25346;DHT22;13300;51.032;3.710;2023-03-01T12:48:38;17.80;66.00
25346;DHT22;13300;51.032;3.710;2023-03-01T12:51:08;18.10;65.80
25346;DHT22;13300;51.032;3.710;2023-03-01T12:53:49;18.30;64.80
25346;DHT22;13300;51.032;3.710;2023-03-01T12:56:28;18.00;66.10
25346;DHT22;13300;51.032;3.710;2023-03-01T12:59:22;17.60;66.30
25346;DHT22;13300;51.032;3.710;2023-03-01T13:08:07;18.60;65.60
25346;DHT22;13300;51.032;3.710;2023-03-01T13:10:48;18.50;64.70
25346;DHT22;13300;51.032;3.710;2023-03-01T13:15:44;18.30;64.90
25346;DHT22;13300;51.032;3.710;2023-03-01T13:23:33;17.70;65.70
25346;DHT22;13300;51.032;3.710;2023-03-01T13:33:48;18.60;64.20
25346;DHT22;13300;51.032;3.710;2023-03-01T13:44:53;17.90;64.50
25346;DHT22;13300;51.032;3.710;2023-03-01T13:47:19;17.80;65.40
25346;DHT22;13300;51.032;3.710;2023-03-01T13:49:57;18.10;65.90
25346;DHT22;13300;51.032;3.710;2023-03-01T13:55:05;18.40;64.90
25346;DHT22;13300;51.032;3.710;2023-03-01T13:57:36;18.10;64.70
25346;DHT22;13300;51.032;3.710;2023-03-01T14:00:06;18.20;65.00
25346;DHT22;13300;51.032;3.710;2023-03-01T14:02:32;18.40;65.50
25346;DHT22;13300;51.032;3.710;2023-03-01T14:05:00;18.30;64.50
25346;DHT22;13300;51.032;3.710;2023-03-01T14:07:27;18.00;65.60
25346;DHT22;13300;51.032;3.710;2023-03-01T14:09:58;18.10;65.80
25346;DHT22;13300;51.032;3.710;2023-03-01T14:15:36;17.80;64.80
25346;DHT22;13300;51.032;3.710;2023-03-01T14:20:42;17.10;67.40
25346;DHT22;13300;51.032;3.710;2023-03-01T14:23:15;16.90;67.40
25346;DHT22;13300;51.032;3.710;2023-03-01T14:25:56;17.00;67.90
25346;DHT22;13300;51.032;3.710;2023-03-01T14:28:32;17.40;67.50
25346;DHT22;13300;51.032;3.710;2023-03-01T14:31:02;17.30;67.30
25346;DHT22;13300;51.032;3.710;2023-03-01T14:33:29;17.30;68.10
25346;DHT22;13300;51.032;3.710;2023-03-01T14:38:42;17.00;68.00
25346;DHT22;13300;51.032;3.710;2023-03-01T14:41:18;16.60;68.60
25346;DHT22;13300;51.032;3.710;2023-03-01T14:43:53;16.40;70.70
25346;DHT22;13300;51.032;3.710;2023-03-01T14:46:42;16.30;69.50
25346;DHT22;13300;51.032;3.710;2023-03-01T14:49:21;16.10;69.50
25346;DHT22;13300;51.032;3.710;2023-03-01T14:52:18;16.30;70.00
25346;DHT22;13300;51.032;3.710;2023-03-01T14:54:52;16.50;70.00
25346;DHT22;13300;51.032;3.710;2023-03-01T14:57:24;16.30;69.60
25346;DHT22;13300;51.032;3.710;2023-03-01T14:59:57;15.10;70.90
25346;DHT22;13300;51.032;3.710;2023-03-01T15:02:25;14.20;72.90
25346;DHT22;13300;51.032;3.710;2023-03-01T15:04:55;13.30;75.00
25346;DHT22;13300;51.032;3.710;2023-03-01T15:07:29;12.40;77.50
25346;DHT22;13300;51.032;3.710;2023-03-01T15:09:58;11.50;80.30
25346;DHT22;13300;51.032;3.710;2023-03-01T15:14:55;10.60;82.90
25346;DHT22;13300;51.032;3.710;2023-03-01T15:17:29;10.30;84.30
25346;DHT22;13300;51.032;3.710;2023-03-01T15:19:56;10.20;84.90
25346;DHT22;13300;51.032;3.710;2023-03-01T15:22:23;9.90;85.60
25346;DHT22;13300;51.032;3.710;2023-03-01T15:24:50;9.80;86.70
25346;DHT22;13300;51.032;3.710;2023-03-01T15:27:18;9.60;87.20
25346;DHT22;13300;51.032;3.710;2023-03-01T15:30:02;9.40;86.90
25346;DHT22;13300;51.032;3.710;2023-03-01T15:32:31;9.30;87.00
25346;DHT22;13300;51.032;3.710;2023-03-01T15:34:58;9.30;87.30
25346;DHT22;13300;51.032;3.710;2023-03-01T15:37:45;9.20;87.30
25346;DHT22;13300;51.032;3.710;2023-03-01T15:40:20;9.20;87.50
25346;DHT22;13300;51.032;3.710;2023-03-01T15:42:46;9.20;87.70
25346;DHT22;13300;51.032;3.710;2023-03-01T15:47:50;9.30;88.30
25346;DHT22;13300;51.032;3.710;2023-03-01T15:50:28;9.30;87.90
25346;DHT22;13300;51.032;3.710;2023-03-01T15:52:55;9.10;88.20
25346;DHT22;13300;51.032;3.710;2023-03-01T15:55:26;9.10;88.40
25346;DHT22;13300;51.032;3.710;2023-03-01T15:58:09;9.10;88.80
25346;DHT22;13300;51.032;3.710;2023-03-01T16:00:35;9.10;89.40
25346;DHT22;13300;51.032;3.710;2023-03-01T16:03:01;9.00;89.60
25346;DHT22;13300;51.032;3.710;2023-03-01T16:05:32;9.00;89.60
25346;DHT22;13300;51.032;3.710;2023-03-01T16:07:58;9.00;90.20
25346;DHT22;13300;51.032;3.710;2023-03-01T16:10:24;9.00;89.70
25346;DHT22;13300;51.032;3.710;2023-03-01T16:12:51;8.80;90.10
25346;DHT22;13300;51.032;3.710;2023-03-01T16:15:31;8.70;90.70
25346;DHT22;13300;51.032;3.710;2023-03-01T16:17:58;8.70;90.60
25346;DHT22;13300;51.032;3.710;2023-03-01T16:20:25;8.60;90.60
25346;DHT22;13300;51.032;3.710;2023-03-01T16:22:53;8.70;90.70
25346;DHT22;13300;51.032;3.710;2023-03-01T16:25:20;8.70;90.80
25346;DHT22;13300;51.032;3.710;2023-03-01T16:27:49;8.70;90.80
25346;DHT22;13300;51.032;3.710;2023-03-01T16:30:20;8.60;90.90
25346;DHT22;13300;51.032;3.710;2023-03-01T16:32:47;8.40;91.00
25346;DHT22;13300;51.032;3.710;2023-03-01T16:35:18;8.50;91.50
25346;DHT22;13300;51.032;3.710;2023-03-01T16:37:45;8.60;91.20
25346;DHT22;13300;51.032;3.710;2023-03-01T16:40:22;8.60;91.40
25346;DHT22;13300;51.032;3.710;2023-03-01T16:42:51;8.60;91.50
25346;DHT22;13300;51.032;3.710;2023-03-01T16:45:18;8.60;91.30
25346;DHT22;13300;51.032;3.710;2023-03-01T16:47:44;8.50;91.20
25346;DHT22;13300;51.032;3.710;2023-03-01T16:50:10;8.30;91.50
25346;DHT22;13300;51.032;3.710;2023-03-01T16:52:36;8.00;91.60
25346;DHT22;13300;51.032;3.710;2023-03-01T16:55:04;8.00;91.70
25346;DHT22;13300;51.032;3.710;2023-03-01T16:57:30;8.00;91.70
25346;DHT22;13300;51.032;3.710;2023-03-01T16:59:56;7.90;91.90
25346;DHT22;13300;51.032;3.710;2023-03-01T17:02:22;7.90;91.90
25346;DHT22;13300;51.032;3.710;2023-03-01T17:04:55;7.80;92.20
25346;DHT22;13300;51.032;3.710;2023-03-01T17:07:21;7.90;92.20
25346;DHT22;13300;51.032;3.710;2023-03-01T17:09:47;7.80;92.40
25346;DHT22;13300;51.032;3.710;2023-03-01T17:12:14;7.90;92.40
25346;DHT22;13300;51.032;3.710;2023-03-01T17:14:42;7.90;92.40
25346;DHT22;13300;51.032;3.710;2023-03-01T17:17:09;7.80;92.60
25346;DHT22;13300;51.032;3.710;2023-03-01T17:19:35;7.70;92.70
25346;DHT22;13300;51.032;3.710;2023-03-01T17:22:05;7.60;92.90
25346;DHT22;13300;51.032;3.710;2023-03-01T17:24:36;7.60;93.00
25346;DHT22;13300;51.032;3.710;2023-03-01T17:27:02;7.60;92.90
25346;DHT22;13300;51.032;3.710;2023-03-01T17:29:28;7.50;92.80
25346;DHT22;13300;51.032;3.710;2023-03-01T17:31:54;7.50;92.70
25346;DHT22;13300;51.032;3.710;2023-03-01T17:34:21;7.40;93.00
25346;DHT22;13300;51.032;3.710;2023-03-01T17:36:47;7.30;93.00
25346;DHT22;13300;51.032;3.710;2023-03-01T17:39:15;7.20;93.00
25346;DHT22;13300;51.032;3.710;2023-03-01T17:41:42;7.20;93.10
25346;DHT22;13300;51.032;3.710;2023-03-01T17:44:11;7.20;92.90
25346;DHT22;13300;51.032;3.710;2023-03-01T17:46:37;7.10;93.10
25346;DHT22;13300;51.032;3.710;2023-03-01T17:49:03;7.10;93.30
25346;DHT22;13300;51.032;3.710;2023-03-01T17:51:29;7.10;93.40
25346;DHT22;13300;51.032;3.710;2023-03-01T17:53:54;6.90;93.80
25346;DHT22;13300;51.032;3.710;2023-03-01T17:56:20;6.90;93.90
25346;DHT22;13300;51.032;3.710;2023-03-01T17:58:46;6.80;94.20
25346;DHT22;13300;51.032;3.710;2023-03-01T18:01:17;6.80;94.30
25346;DHT22;13300;51.032;3.710;2023-03-01T18:03:43;6.80;94.50
25346;DHT22;13300;51.032;3.710;2023-03-01T18:06:15;6.80;94.50
25346;DHT22;13300;51.032;3.710;2023-03-01T18:08:47;6.80;94.60
25346;DHT22;13300;51.032;3.710;2023-03-01T18:11:16;6.70;94.70
25346;DHT22;13300;51.032;3.710;2023-03-01T18:13:42;6.70;94.80
25346;DHT22;13300;51.032;3.710;2023-03-01T18:16:11;6.70;95.00